sensor_id;sensor_type;location;lat;lon;timestamp;P1;durP1;ratioP1;P2;durP2;ratioP2
39896;SDS011;25567;48.276;14.242;2023-04-15T00:01:45;8.82;;;4.70;;
39896;SDS011;25567;48.276;14.242;2023-04-15T00:04:13;8.40;;;4.53;;
39896;SDS011;25567;48.276;14.242;2023-04-15T00:06:39;7.55;;;4.40;;
39896;SDS011;25567;48.276;14.242;2023-04-15T00:09:06;7.95;;;4.15;;
39896;SDS011;25567;48.276;14.242;2023-04-15T00:11:32;10.02;;;5.28;;
39896;SDS011;25567;48.276;14.242;2023-04-15T00:13:59;12.18;;;4.10;;
39896;SDS011;25567;48.276;14.242;2023-04-15T00:16:26;11.57;;;4.90;;
39896;SDS011;25567;48.276;14.242;2023-04-15T00:18:53;10.65;;;4.13;;
39896;SDS011;25567;48.276;14.242;2023-04-15T00:21:20;10.45;;;4.43;;
39896;SDS011;25567;48.276;14.242;2023-04-15T00:23:46;10.55;;;4.03;;
39896;SDS011;25567;48.276;14.242;2023-04-15T00:26:17;7.10;;;4.05;;
39896;SDS011;25567;48.276;14.242;2023-04-15T00:28:45;5.90;;;3.85;;
39896;SDS011;25567;48.276;14.242;2023-04-15T00:31:11;8.18;;;3.70;;
39896;SDS011;25567;48.276;14.242;2023-04-15T00:33:38;6.18;;;4.07;;
39896;SDS011;25567;48.276;14.242;2023-04-15T00:36:05;6.50;;;3.83;;
39896;SDS011;25567;48.276;14.242;2023-04-15T00:38:32;10.40;;;4.30;;
39896;SDS011;25567;48.276;14.242;2023-04-15T00:40:58;8.15;;;4.22;;
39896;SDS011;25567;48.276;14.242;2023-04-15T00:43:25;6.70;;;3.83;;
39896;SDS011;25567;48.276;14.242;2023-04-15T00:45:52;8.43;;;4.18;;
39896;SDS011;25567;48.276;14.242;2023-04-15T00:48:19;6.38;;;3.88;;
39896;SDS011;25567;48.276;14.242;2023-04-15T00:50:46;6.63;;;3.72;;
39896;SDS011;25567;48.276;14.242;2023-04-15T00:53:12;5.80;;;3.55;;
39896;SDS011;25567;48.276;14.242;2023-04-15T00:55:39;3.67;;;2.78;;
39896;SDS011;25567;48.276;14.242;2023-04-15T00:58:05;6.15;;;3.42;;
39896;SDS011;25567;48.276;14.242;2023-04-15T01:00:32;5.18;;;2.85;;
39896;SDS011;25567;48.276;14.242;2023-04-15T01:02:59;8.05;;;3.55;;
39896;SDS011;25567;48.276;14.242;2023-04-15T01:05:27;4.18;;;2.53;;
39896;SDS011;25567;48.276;14.242;2023-04-15T01:07:53;4.32;;;2.55;;
39896;SDS011;25567;48.276;14.242;2023-04-15T01:10:20;5.28;;;2.67;;
39896;SDS011;25567;48.276;14.242;2023-04-15T01:12:47;3.33;;;1.88;;
39896;SDS011;25567;48.276;14.242;2023-04-15T01:15:14;3.25;;;1.80;;
39896;SDS011;25567;48.276;14.242;2023-04-15T01:17:41;5.45;;;2.70;;
39896;SDS011;25567;48.276;14.242;2023-04-15T01:20:08;2.53;;;1.40;;
39896;SDS011;25567;48.276;14.242;2023-04-15T01:22:37;4.13;;;1.45;;
39896;SDS011;25567;48.276;14.242;2023-04-15T01:25:05;2.15;;;1.30;;
39896;SDS011;25567;48.276;14.242;2023-04-15T01:27:35;3.60;;;1.50;;
39896;SDS011;25567;48.276;14.242;2023-04-15T01:30:04;3.83;;;2.15;;
39896;SDS011;25567;48.276;14.242;2023-04-15T01:32:31;4.00;;;2.35;;
39896;SDS011;25567;48.276;14.242;2023-04-15T01:34:58;6.80;;;2.70;;
39896;SDS011;25567;48.276;14.242;2023-04-15T01:37:24;3.20;;;2.00;;
39896;SDS011;25567;48.276;14.242;2023-04-15T01:39:51;5.53;;;2.08;;
39896;SDS011;25567;48.276;14.242;2023-04-15T01:42:17;3.67;;;1.90;;
39896;SDS011;25567;48.276;14.242;2023-04-15T01:44:44;3.28;;;1.90;;
39896;SDS011;25567;48.276;14.242;2023-04-15T01:47:11;2.50;;;1.67;;
39896;SDS011;25567;48.276;14.242;2023-04-15T01:49:37;3.80;;;1.95;;
39896;SDS011;25567;48.276;14.242;2023-04-15T01:52:04;4.07;;;2.10;;
39896;SDS011;25567;48.276;14.242;2023-04-15T01:54:30;2.35;;;1.48;;
39896;SDS011;25567;48.276;14.242;2023-04-15T01:56:57;2.70;;;1.75;;
39896;SDS011;25567;48.276;14.242;2023-04-15T01:59:24;2.63;;;1.52;;
39896;SDS011;25567;48.276;14.242;2023-04-15T02:01:50;3.45;;;1.77;;
39896;SDS011;25567;48.276;14.242;2023-04-15T02:04:17;3.03;;;1.80;;
39896;SDS011;25567;48.276;14.242;2023-04-15T02:06:44;2.55;;;1.42;;
39896;SDS011;25567;48.276;14.242;2023-04-15T02:09:11;4.40;;;1.95;;
39896;SDS011;25567;48.276;14.242;2023-04-15T02:11:37;2.53;;;1.10;;
39896;SDS011;25567;48.276;14.242;2023-04-15T02:14:05;1.67;;;1.10;;
39896;SDS011;25567;48.276;14.242;2023-04-15T02:16:32;1.35;;;0.88;;
39896;SDS011;25567;48.276;14.242;2023-04-15T02:18:59;1.60;;;0.98;;
39896;SDS011;25567;48.276;14.242;2023-04-15T02:21:26;2.47;;;1.40;;
39896;SDS011;25567;48.276;14.242;2023-04-15T02:23:52;1.40;;;0.93;;
39896;SDS011;25567;48.276;14.242;2023-04-15T02:26:19;1.23;;;0.90;;
39896;SDS011;25567;48.276;14.242;2023-04-15T02:28:46;2.78;;;1.00;;
39896;SDS011;25567;48.276;14.242;2023-04-15T02:31:13;1.30;;;0.57;;
39896;SDS011;25567;48.276;14.242;2023-04-15T02:33:39;9.90;;;0.90;;
39896;SDS011;25567;48.276;14.242;2023-04-15T02:36:06;3.10;;;0.68;;
39896;SDS011;25567;48.276;14.242;2023-04-15T02:38:33;2.13;;;0.70;;
39896;SDS011;25567;48.276;14.242;2023-04-15T02:41:00;2.15;;;0.45;;
39896;SDS011;25567;48.276;14.242;2023-04-15T02:43:26;0.68;;;0.50;;
39896;SDS011;25567;48.276;14.242;2023-04-15T02:45:53;0.77;;;0.57;;
39896;SDS011;25567;48.276;14.242;2023-04-15T02:48:19;0.93;;;0.60;;
39896;SDS011;25567;48.276;14.242;2023-04-15T02:50:47;1.73;;;0.60;;
39896;SDS011;25567;48.276;14.242;2023-04-15T02:53:13;2.00;;;0.70;;
39896;SDS011;25567;48.276;14.242;2023-04-15T02:55:40;0.95;;;0.50;;
39896;SDS011;25567;48.276;14.242;2023-04-15T02:58:08;0.80;;;0.73;;
39896;SDS011;25567;48.276;14.242;2023-04-15T03:00:34;1.27;;;0.90;;
39896;SDS011;25567;48.276;14.242;2023-04-15T03:03:01;1.83;;;0.80;;
39896;SDS011;25567;48.276;14.242;2023-04-15T03:05:28;1.10;;;0.50;;
39896;SDS011;25567;48.276;14.242;2023-04-15T03:07:55;2.00;;;0.90;;
39896;SDS011;25567;48.276;14.242;2023-04-15T03:10:21;2.35;;;0.70;;
39896;SDS011;25567;48.276;14.242;2023-04-15T03:12:48;1.92;;;0.85;;
39896;SDS011;25567;48.276;14.242;2023-04-15T03:15:14;1.10;;;0.70;;
39896;SDS011;25567;48.276;14.242;2023-04-15T03:17:42;1.98;;;0.77;;
39896;SDS011;25567;48.276;14.242;2023-04-15T03:20:09;2.92;;;1.23;;
39896;SDS011;25567;48.276;14.242;2023-04-15T03:22:36;1.20;;;0.70;;
39896;SDS011;25567;48.276;14.242;2023-04-15T03:25:03;1.73;;;0.77;;
39896;SDS011;25567;48.276;14.242;2023-04-15T03:27:29;4.20;;;0.73;;
39896;SDS011;25567;48.276;14.242;2023-04-15T03:29:56;3.30;;;0.90;;
39896;SDS011;25567;48.276;14.242;2023-04-15T03:32:22;1.58;;;0.85;;
39896;SDS011;25567;48.276;14.242;2023-04-15T03:34:49;3.90;;;1.10;;
39896;SDS011;25567;48.276;14.242;2023-04-15T03:37:15;1.10;;;0.77;;
39896;SDS011;25567;48.276;14.242;2023-04-15T03:39:42;1.83;;;0.88;;
39896;SDS011;25567;48.276;14.242;2023-04-15T03:42:08;1.65;;;0.73;;
39896;SDS011;25567;48.276;14.242;2023-04-15T03:44:35;1.23;;;0.77;;
39896;SDS011;25567;48.276;14.242;2023-04-15T03:47:02;1.58;;;0.85;;
39896;SDS011;25567;48.276;14.242;2023-04-15T03:49:28;1.13;;;0.60;;
39896;SDS011;25567;48.276;14.242;2023-04-15T03:51:55;1.23;;;0.60;;
39896;SDS011;25567;48.276;14.242;2023-04-15T03:54:22;1.58;;;0.70;;
39896;SDS011;25567;48.276;14.242;2023-04-15T03:56:49;3.22;;;0.95;;
39896;SDS011;25567;48.276;14.242;2023-04-15T03:59:15;0.85;;;0.60;;
39896;SDS011;25567;48.276;14.242;2023-04-15T04:01:42;1.05;;;0.80;;
39896;SDS011;25567;48.276;14.242;2023-04-15T04:04:08;1.30;;;0.50;;
39896;SDS011;25567;48.276;14.242;2023-04-15T04:06:35;5.30;;;1.45;;
39896;SDS011;25567;48.276;14.242;2023-04-15T04:09:01;1.45;;;1.00;;
39896;SDS011;25567;48.276;14.242;2023-04-15T04:11:28;1.13;;;0.80;;
39896;SDS011;25567;48.276;14.242;2023-04-15T04:13:55;3.42;;;1.95;;
39896;SDS011;25567;48.276;14.242;2023-04-15T04:16:21;1.65;;;0.85;;
39896;SDS011;25567;48.276;14.242;2023-04-15T04:18:48;2.03;;;1.02;;
39896;SDS011;25567;48.276;14.242;2023-04-15T04:21:15;1.33;;;0.95;;
39896;SDS011;25567;48.276;14.242;2023-04-15T04:23:41;2.25;;;1.00;;
39896;SDS011;25567;48.276;14.242;2023-04-15T04:26:08;1.33;;;0.95;;
39896;SDS011;25567;48.276;14.242;2023-04-15T04:28:34;1.48;;;0.88;;
39896;SDS011;25567;48.276;14.242;2023-04-15T04:31:01;0.93;;;0.65;;
39896;SDS011;25567;48.276;14.242;2023-04-15T04:33:28;1.55;;;1.20;;
39896;SDS011;25567;48.276;14.242;2023-04-15T04:35:54;1.83;;;0.95;;
39896;SDS011;25567;48.276;14.242;2023-04-15T04:38:21;3.03;;;1.35;;
39896;SDS011;25567;48.276;14.242;2023-04-15T04:40:47;1.95;;;0.98;;
39896;SDS011;25567;48.276;14.242;2023-04-15T04:43:14;2.80;;;1.35;;
39896;SDS011;25567;48.276;14.242;2023-04-15T04:45:41;2.00;;;1.05;;
39896;SDS011;25567;48.276;14.242;2023-04-15T04:48:08;2.33;;;1.20;;
39896;SDS011;25567;48.276;14.242;2023-04-15T04:50:35;1.52;;;1.10;;
39896;SDS011;25567;48.276;14.242;2023-04-15T04:53:02;2.55;;;1.55;;
39896;SDS011;25567;48.276;14.242;2023-04-15T04:55:29;2.50;;;1.48;;
39896;SDS011;25567;48.276;14.242;2023-04-15T04:57:57;5.93;;;1.38;;
39896;SDS011;25567;48.276;14.242;2023-04-15T05:00:23;3.78;;;1.95;;
39896;SDS011;25567;48.276;14.242;2023-04-15T05:02:50;3.33;;;1.42;;
39896;SDS011;25567;48.276;14.242;2023-04-15T05:05:17;2.83;;;1.58;;
39896;SDS011;25567;48.276;14.242;2023-04-15T05:07:44;1.65;;;1.10;;
39896;SDS011;25567;48.276;14.242;2023-04-15T05:10:10;1.90;;;1.20;;
39896;SDS011;25567;48.276;14.242;2023-04-15T05:12:37;1.73;;;1.20;;
39896;SDS011;25567;48.276;14.242;2023-04-15T05:15:04;2.78;;;1.40;;
39896;SDS011;25567;48.276;14.242;2023-04-15T05:17:31;1.45;;;1.00;;
39896;SDS011;25567;48.276;14.242;2023-04-15T05:19:58;1.58;;;1.10;;
39896;SDS011;25567;48.276;14.242;2023-04-15T05:22:25;1.38;;;0.90;;
39896;SDS011;25567;48.276;14.242;2023-04-15T05:24:51;2.72;;;1.30;;
39896;SDS011;25567;48.276;14.242;2023-04-15T05:27:18;4.90;;;1.40;;
39896;SDS011;25567;48.276;14.242;2023-04-15T05:29:45;2.20;;;1.08;;
39896;SDS011;25567;48.276;14.242;2023-04-15T05:32:12;2.47;;;1.30;;
39896;SDS011;25567;48.276;14.242;2023-04-15T05:34:39;2.35;;;1.20;;
39896;SDS011;25567;48.276;14.242;2023-04-15T05:37:05;1.63;;;1.33;;
39896;SDS011;25567;48.276;14.242;2023-04-15T05:39:32;1.40;;;0.82;;
39896;SDS011;25567;48.276;14.242;2023-04-15T05:41:59;1.25;;;1.05;;
39896;SDS011;25567;48.276;14.242;2023-04-15T05:44:26;3.08;;;1.10;;
39896;SDS011;25567;48.276;14.242;2023-04-15T05:46:52;5.00;;;1.15;;
39896;SDS011;25567;48.276;14.242;2023-04-15T05:49:19;2.95;;;1.10;;
39896;SDS011;25567;48.276;14.242;2023-04-15T05:51:46;1.40;;;1.10;;
39896;SDS011;25567;48.276;14.242;2023-04-15T05:54:12;1.58;;;0.93;;
39896;SDS011;25567;48.276;14.242;2023-04-15T05:56:39;1.70;;;0.90;;
39896;SDS011;25567;48.276;14.242;2023-04-15T05:59:05;1.40;;;0.90;;
39896;SDS011;25567;48.276;14.242;2023-04-15T06:01:32;1.40;;;0.63;;
39896;SDS011;25567;48.276;14.242;2023-04-15T06:04:00;1.25;;;0.80;;
39896;SDS011;25567;48.276;14.242;2023-04-15T06:06:27;1.50;;;0.88;;
39896;SDS011;25567;48.276;14.242;2023-04-15T06:08:53;1.20;;;0.65;;
39896;SDS011;25567;48.276;14.242;2023-04-15T06:11:21;2.15;;;0.85;;
39896;SDS011;25567;48.276;14.242;2023-04-15T06:13:48;1.58;;;0.60;;
39896;SDS011;25567;48.276;14.242;2023-04-15T06:16:15;0.85;;;0.68;;
39896;SDS011;25567;48.276;14.242;2023-04-15T06:18:41;1.05;;;0.65;;
39896;SDS011;25567;48.276;14.242;2023-04-15T06:21:08;1.60;;;0.85;;
39896;SDS011;25567;48.276;14.242;2023-04-15T06:23:35;3.55;;;0.98;;
39896;SDS011;25567;48.276;14.242;2023-04-15T06:26:01;2.70;;;1.23;;
39896;SDS011;25567;48.276;14.242;2023-04-15T06:28:28;1.13;;;0.77;;
39896;SDS011;25567;48.276;14.242;2023-04-15T06:30:54;1.75;;;0.63;;
39896;SDS011;25567;48.276;14.242;2023-04-15T06:33:21;1.42;;;0.75;;
39896;SDS011;25567;48.276;14.242;2023-04-15T06:35:47;1.67;;;0.88;;
39896;SDS011;25567;48.276;14.242;2023-04-15T06:38:15;1.40;;;0.60;;
39896;SDS011;25567;48.276;14.242;2023-04-15T06:40:41;1.70;;;0.80;;
39896;SDS011;25567;48.276;14.242;2023-04-15T06:43:08;0.82;;;0.40;;
39896;SDS011;25567;48.276;14.242;2023-04-15T06:45:39;1.60;;;0.75;;
39896;SDS011;25567;48.276;14.242;2023-04-15T06:48:09;1.10;;;0.60;;
39896;SDS011;25567;48.276;14.242;2023-04-15T06:50:36;0.80;;;0.65;;
39896;SDS011;25567;48.276;14.242;2023-04-15T06:53:03;1.88;;;0.93;;
39896;SDS011;25567;48.276;14.242;2023-04-15T06:55:29;3.47;;;1.80;;
39896;SDS011;25567;48.276;14.242;2023-04-15T06:57:57;5.57;;;1.48;;
39896;SDS011;25567;48.276;14.242;2023-04-15T07:00:24;1.80;;;1.10;;
39896;SDS011;25567;48.276;14.242;2023-04-15T07:02:51;2.55;;;1.20;;
39896;SDS011;25567;48.276;14.242;2023-04-15T07:05:18;2.35;;;1.23;;
39896;SDS011;25567;48.276;14.242;2023-04-15T07:07:45;2.53;;;1.00;;
39896;SDS011;25567;48.276;14.242;2023-04-15T07:10:13;1.20;;;0.90;;
39896;SDS011;25567;48.276;14.242;2023-04-15T07:12:41;2.72;;;1.17;;
39896;SDS011;25567;48.276;14.242;2023-04-15T07:15:07;2.03;;;0.73;;
39896;SDS011;25567;48.276;14.242;2023-04-15T07:17:34;0.93;;;0.60;;
39896;SDS011;25567;48.276;14.242;2023-04-15T07:20:01;1.40;;;0.55;;
39896;SDS011;25567;48.276;14.242;2023-04-15T07:22:27;0.98;;;0.60;;
39896;SDS011;25567;48.276;14.242;2023-04-15T07:24:54;2.33;;;0.73;;
39896;SDS011;25567;48.276;14.242;2023-04-15T07:27:20;1.52;;;0.80;;
39896;SDS011;25567;48.276;14.242;2023-04-15T07:29:47;1.85;;;0.82;;
39896;SDS011;25567;48.276;14.242;2023-04-15T07:32:14;2.75;;;1.00;;
39896;SDS011;25567;48.276;14.242;2023-04-15T07:34:40;4.07;;;1.20;;
39896;SDS011;25567;48.276;14.242;2023-04-15T07:37:07;2.00;;;0.60;;
39896;SDS011;25567;48.276;14.242;2023-04-15T07:39:33;1.65;;;0.50;;
39896;SDS011;25567;48.276;14.242;2023-04-15T07:42:00;0.82;;;0.50;;
39896;SDS011;25567;48.276;14.242;2023-04-15T07:44:27;0.82;;;0.50;;
39896;SDS011;25567;48.276;14.242;2023-04-15T07:46:54;0.73;;;0.55;;
39896;SDS011;25567;48.276;14.242;2023-04-15T07:49:21;1.65;;;1.00;;
39896;SDS011;25567;48.276;14.242;2023-04-15T07:51:47;0.80;;;0.60;;
39896;SDS011;25567;48.276;14.242;2023-04-15T07:54:15;1.13;;;0.85;;
39896;SDS011;25567;48.276;14.242;2023-04-15T07:56:42;1.10;;;0.40;;
39896;SDS011;25567;48.276;14.242;2023-04-15T07:59:08;1.23;;;0.57;;
39896;SDS011;25567;48.276;14.242;2023-04-15T08:01:40;1.00;;;0.50;;
39896;SDS011;25567;48.276;14.242;2023-04-15T08:04:06;1.23;;;0.75;;
39896;SDS011;25567;48.276;14.242;2023-04-15T08:06:33;2.17;;;1.00;;
39896;SDS011;25567;48.276;14.242;2023-04-15T08:09:00;1.23;;;0.85;;
39896;SDS011;25567;48.276;14.242;2023-04-15T08:11:27;1.25;;;0.50;;
39896;SDS011;25567;48.276;14.242;2023-04-15T08:13:53;0.45;;;0.38;;
39896;SDS011;25567;48.276;14.242;2023-04-15T08:16:23;0.70;;;0.50;;
39896;SDS011;25567;48.276;14.242;2023-04-15T08:18:51;1.48;;;0.75;;
39896;SDS011;25567;48.276;14.242;2023-04-15T08:21:18;1.58;;;0.60;;
39896;SDS011;25567;48.276;14.242;2023-04-15T08:23:45;0.63;;;0.50;;
39896;SDS011;25567;48.276;14.242;2023-04-15T08:26:12;1.45;;;0.73;;
39896;SDS011;25567;48.276;14.242;2023-04-15T08:28:39;1.45;;;0.70;;
39896;SDS011;25567;48.276;14.242;2023-04-15T08:31:06;0.88;;;0.50;;
39896;SDS011;25567;48.276;14.242;2023-04-15T08:33:34;1.25;;;0.75;;
39896;SDS011;25567;48.276;14.242;2023-04-15T08:36:00;1.70;;;0.90;;
39896;SDS011;25567;48.276;14.242;2023-04-15T08:38:27;2.03;;;1.05;;
39896;SDS011;25567;48.276;14.242;2023-04-15T08:40:53;3.58;;;1.58;;
39896;SDS011;25567;48.276;14.242;2023-04-15T08:43:22;2.67;;;1.40;;
39896;SDS011;25567;48.276;14.242;2023-04-15T08:45:55;3.03;;;1.80;;
39896;SDS011;25567;48.276;14.242;2023-04-15T08:48:24;1.85;;;0.80;;
39896;SDS011;25567;48.276;14.242;2023-04-15T08:50:54;1.63;;;1.30;;
39896;SDS011;25567;48.276;14.242;2023-04-15T08:53:21;1.85;;;0.80;;
39896;SDS011;25567;48.276;14.242;2023-04-15T08:55:49;1.58;;;1.00;;
39896;SDS011;25567;48.276;14.242;2023-04-15T08:58:16;6.88;;;1.30;;
39896;SDS011;25567;48.276;14.242;2023-04-15T09:00:44;3.53;;;1.40;;
39896;SDS011;25567;48.276;14.242;2023-04-15T09:03:11;2.33;;;1.30;;
39896;SDS011;25567;48.276;14.242;2023-04-15T09:05:37;3.42;;;1.83;;
39896;SDS011;25567;48.276;14.242;2023-04-15T09:08:04;3.05;;;1.10;;
39896;SDS011;25567;48.276;14.242;2023-04-15T09:10:31;3.58;;;1.70;;
39896;SDS011;25567;48.276;14.242;2023-04-15T09:12:59;2.80;;;1.38;;
39896;SDS011;25567;48.276;14.242;2023-04-15T09:15:27;2.20;;;1.13;;
39896;SDS011;25567;48.276;14.242;2023-04-15T09:17:55;3.72;;;1.42;;
39896;SDS011;25567;48.276;14.242;2023-04-15T09:20:22;3.80;;;1.92;;
39896;SDS011;25567;48.276;14.242;2023-04-15T09:22:49;4.47;;;2.17;;
39896;SDS011;25567;48.276;14.242;2023-04-15T09:27:59;6.68;;;2.53;;
39896;SDS011;25567;48.276;14.242;2023-04-15T09:30:26;2.00;;;1.20;;
39896;SDS011;25567;48.276;14.242;2023-04-15T09:32:57;3.60;;;1.48;;
39896;SDS011;25567;48.276;14.242;2023-04-15T09:35:24;3.92;;;1.13;;
39896;SDS011;25567;48.276;14.242;2023-04-15T09:37:51;2.42;;;1.40;;
39896;SDS011;25567;48.276;14.242;2023-04-15T09:40:30;2.13;;;1.10;;
39896;SDS011;25567;48.276;14.242;2023-04-15T09:42:58;4.35;;;0.90;;
39896;SDS011;25567;48.276;14.242;2023-04-15T09:45:25;1.63;;;1.00;;
39896;SDS011;25567;48.276;14.242;2023-04-15T09:47:55;1.65;;;1.00;;
39896;SDS011;25567;48.276;14.242;2023-04-15T09:50:27;0.95;;;0.80;;
39896;SDS011;25567;48.276;14.242;2023-04-15T09:52:54;1.58;;;1.10;;
39896;SDS011;25567;48.276;14.242;2023-04-15T09:55:21;1.92;;;1.08;;
39896;SDS011;25567;48.276;14.242;2023-04-15T09:57:48;1.95;;;1.08;;
39896;SDS011;25567;48.276;14.242;2023-04-15T10:00:14;2.30;;;0.95;;
39896;SDS011;25567;48.276;14.242;2023-04-15T10:02:41;1.60;;;1.00;;
39896;SDS011;25567;48.276;14.242;2023-04-15T10:05:13;1.42;;;1.10;;
39896;SDS011;25567;48.276;14.242;2023-04-15T10:07:39;2.15;;;1.25;;
39896;SDS011;25567;48.276;14.242;2023-04-15T10:10:08;2.22;;;1.10;;
39896;SDS011;25567;48.276;14.242;2023-04-15T10:12:36;1.58;;;1.17;;
39896;SDS011;25567;48.276;14.242;2023-04-15T10:15:03;3.28;;;1.30;;
39896;SDS011;25567;48.276;14.242;2023-04-15T10:17:31;3.80;;;1.60;;
39896;SDS011;25567;48.276;14.242;2023-04-15T10:20:00;2.92;;;1.42;;
39896;SDS011;25567;48.276;14.242;2023-04-15T10:22:29;2.38;;;1.73;;
39896;SDS011;25567;48.276;14.242;2023-04-15T10:24:55;3.00;;;1.90;;
39896;SDS011;25567;48.276;14.242;2023-04-15T10:27:22;4.72;;;2.30;;
39896;SDS011;25567;48.276;14.242;2023-04-15T10:29:49;4.75;;;2.40;;
39896;SDS011;25567;48.276;14.242;2023-04-15T10:32:17;4.00;;;2.30;;
39896;SDS011;25567;48.276;14.242;2023-04-15T10:34:44;3.40;;;2.30;;
39896;SDS011;25567;48.276;14.242;2023-04-15T10:37:11;4.43;;;2.35;;
39896;SDS011;25567;48.276;14.242;2023-04-15T10:42:11;4.82;;;2.67;;
39896;SDS011;25567;48.276;14.242;2023-04-15T10:44:38;5.40;;;3.30;;
39896;SDS011;25567;48.276;14.242;2023-04-15T10:47:14;4.05;;;2.92;;
39896;SDS011;25567;48.276;14.242;2023-04-15T10:52:14;3.83;;;2.40;;
39896;SDS011;25567;48.276;14.242;2023-04-15T10:54:42;3.30;;;2.35;;
39896;SDS011;25567;48.276;14.242;2023-04-15T10:57:16;4.97;;;2.80;;
39896;SDS011;25567;48.276;14.242;2023-04-15T11:00:00;4.18;;;2.40;;
39896;SDS011;25567;48.276;14.242;2023-04-15T11:02:42;4.28;;;2.72;;
39896;SDS011;25567;48.276;14.242;2023-04-15T11:05:09;3.55;;;2.40;;
39896;SDS011;25567;48.276;14.242;2023-04-15T11:07:40;4.05;;;2.60;;
39896;SDS011;25567;48.276;14.242;2023-04-15T11:12:43;4.90;;;2.72;;
39896;SDS011;25567;48.276;14.242;2023-04-15T11:17:52;5.68;;;3.50;;
39896;SDS011;25567;48.276;14.242;2023-04-15T11:20:19;4.57;;;2.67;;
39896;SDS011;25567;48.276;14.242;2023-04-15T11:22:52;4.38;;;2.80;;
39896;SDS011;25567;48.276;14.242;2023-04-15T11:25:39;6.72;;;2.40;;
39896;SDS011;25567;48.276;14.242;2023-04-15T11:28:06;3.17;;;2.47;;
39896;SDS011;25567;48.276;14.242;2023-04-15T11:30:35;4.22;;;2.35;;
39896;SDS011;25567;48.276;14.242;2023-04-15T11:33:06;3.97;;;2.60;;
39896;SDS011;25567;48.276;14.242;2023-04-15T11:35:33;5.22;;;2.75;;
39896;SDS011;25567;48.276;14.242;2023-04-15T11:38:04;3.80;;;2.55;;
39896;SDS011;25567;48.276;14.242;2023-04-15T11:40:35;3.65;;;2.50;;
39896;SDS011;25567;48.276;14.242;2023-04-15T11:43:12;3.60;;;2.15;;
39896;SDS011;25567;48.276;14.242;2023-04-15T11:48:15;3.75;;;2.33;;
39896;SDS011;25567;48.276;14.242;2023-04-15T11:50:41;4.57;;;2.47;;
39896;SDS011;25567;48.276;14.242;2023-04-15T11:53:08;4.05;;;2.40;;
39896;SDS011;25567;48.276;14.242;2023-04-15T11:55:45;4.47;;;2.58;;
39896;SDS011;25567;48.276;14.242;2023-04-15T11:58:18;4.15;;;2.47;;
39896;SDS011;25567;48.276;14.242;2023-04-15T12:00:56;4.55;;;3.00;;
39896;SDS011;25567;48.276;14.242;2023-04-15T12:03:27;4.13;;;2.80;;
39896;SDS011;25567;48.276;14.242;2023-04-15T12:13:49;4.75;;;2.28;;
39896;SDS011;25567;48.276;14.242;2023-04-15T12:16:16;5.22;;;2.78;;
39896;SDS011;25567;48.276;14.242;2023-04-15T12:18:46;7.57;;;3.78;;
39896;SDS011;25567;48.276;14.242;2023-04-15T12:21:13;7.53;;;3.88;;
39896;SDS011;25567;48.276;14.242;2023-04-15T12:23:55;4.10;;;2.83;;
39896;SDS011;25567;48.276;14.242;2023-04-15T12:26:26;5.47;;;2.72;;
39896;SDS011;25567;48.276;14.242;2023-04-15T12:28:54;4.38;;;2.90;;
39896;SDS011;25567;48.276;14.242;2023-04-15T12:31:21;5.68;;;3.15;;
39896;SDS011;25567;48.276;14.242;2023-04-15T12:33:49;6.47;;;3.78;;
39896;SDS011;25567;48.276;14.242;2023-04-15T12:36:16;4.93;;;2.85;;
39896;SDS011;25567;48.276;14.242;2023-04-15T12:38:42;4.65;;;3.20;;
39896;SDS011;25567;48.276;14.242;2023-04-15T12:41:09;5.70;;;3.50;;
39896;SDS011;25567;48.276;14.242;2023-04-15T12:43:36;5.68;;;3.67;;
39896;SDS011;25567;48.276;14.242;2023-04-15T12:46:02;6.13;;;3.40;;
39896;SDS011;25567;48.276;14.242;2023-04-15T12:48:30;6.85;;;4.10;;
39896;SDS011;25567;48.276;14.242;2023-04-15T12:50:56;7.57;;;4.22;;
39896;SDS011;25567;48.276;14.242;2023-04-15T12:53:23;6.35;;;3.10;;
39896;SDS011;25567;48.276;14.242;2023-04-15T12:55:49;8.40;;;4.68;;
39896;SDS011;25567;48.276;14.242;2023-04-15T12:58:16;7.97;;;4.60;;
39896;SDS011;25567;48.276;14.242;2023-04-15T13:00:42;8.35;;;3.65;;
39896;SDS011;25567;48.276;14.242;2023-04-15T13:03:10;4.55;;;2.88;;
39896;SDS011;25567;48.276;14.242;2023-04-15T13:05:38;6.07;;;3.78;;
39896;SDS011;25567;48.276;14.242;2023-04-15T13:08:05;5.72;;;3.33;;
39896;SDS011;25567;48.276;14.242;2023-04-15T13:10:32;6.28;;;3.92;;
39896;SDS011;25567;48.276;14.242;2023-04-15T13:12:59;7.85;;;4.38;;
39896;SDS011;25567;48.276;14.242;2023-04-15T13:15:25;6.82;;;4.20;;
39896;SDS011;25567;48.276;14.242;2023-04-15T13:17:52;8.02;;;4.75;;
39896;SDS011;25567;48.276;14.242;2023-04-15T13:20:19;7.53;;;4.20;;
39896;SDS011;25567;48.276;14.242;2023-04-15T13:22:45;8.73;;;4.43;;
39896;SDS011;25567;48.276;14.242;2023-04-15T13:25:12;7.05;;;4.80;;
39896;SDS011;25567;48.276;14.242;2023-04-15T13:27:39;8.00;;;4.85;;
39896;SDS011;25567;48.276;14.242;2023-04-15T13:30:06;7.60;;;4.43;;
39896;SDS011;25567;48.276;14.242;2023-04-15T13:32:33;8.82;;;5.20;;
39896;SDS011;25567;48.276;14.242;2023-04-15T13:34:59;10.90;;;5.00;;
39896;SDS011;25567;48.276;14.242;2023-04-15T13:37:26;8.63;;;4.60;;
39896;SDS011;25567;48.276;14.242;2023-04-15T13:39:53;10.63;;;4.93;;
39896;SDS011;25567;48.276;14.242;2023-04-15T13:42:20;6.75;;;4.15;;
39896;SDS011;25567;48.276;14.242;2023-04-15T13:44:48;7.30;;;3.85;;
39896;SDS011;25567;48.276;14.242;2023-04-15T13:47:14;6.50;;;4.22;;
39896;SDS011;25567;48.276;14.242;2023-04-15T13:49:42;8.02;;;4.95;;
39896;SDS011;25567;48.276;14.242;2023-04-15T13:52:09;7.03;;;4.68;;
39896;SDS011;25567;48.276;14.242;2023-04-15T13:54:36;6.78;;;4.22;;
39896;SDS011;25567;48.276;14.242;2023-04-15T13:57:03;6.28;;;3.78;;
39896;SDS011;25567;48.276;14.242;2023-04-15T13:59:30;6.78;;;3.63;;
39896;SDS011;25567;48.276;14.242;2023-04-15T14:01:58;5.93;;;3.58;;
39896;SDS011;25567;48.276;14.242;2023-04-15T14:04:24;4.65;;;3.53;;
39896;SDS011;25567;48.276;14.242;2023-04-15T14:06:51;5.70;;;3.30;;
39896;SDS011;25567;48.276;14.242;2023-04-15T14:09:18;5.30;;;3.05;;
39896;SDS011;25567;48.276;14.242;2023-04-15T14:11:44;6.03;;;3.55;;
39896;SDS011;25567;48.276;14.242;2023-04-15T14:14:11;7.18;;;3.75;;
39896;SDS011;25567;48.276;14.242;2023-04-15T14:16:40;5.93;;;3.50;;
39896;SDS011;25567;48.276;14.242;2023-04-15T14:19:07;5.05;;;3.30;;
39896;SDS011;25567;48.276;14.242;2023-04-15T14:21:33;7.28;;;3.65;;
39896;SDS011;25567;48.276;14.242;2023-04-15T14:24:00;7.35;;;3.75;;
39896;SDS011;25567;48.276;14.242;2023-04-15T14:26:26;7.50;;;4.00;;
39896;SDS011;25567;48.276;14.242;2023-04-15T14:28:53;8.20;;;3.90;;
39896;SDS011;25567;48.276;14.242;2023-04-15T14:31:20;5.45;;;3.38;;
39896;SDS011;25567;48.276;14.242;2023-04-15T14:33:46;6.95;;;4.13;;
39896;SDS011;25567;48.276;14.242;2023-04-15T14:36:13;7.78;;;3.80;;
39896;SDS011;25567;48.276;14.242;2023-04-15T14:38:39;6.88;;;3.35;;
39896;SDS011;25567;48.276;14.242;2023-04-15T14:41:06;7.78;;;3.95;;
39896;SDS011;25567;48.276;14.242;2023-04-15T14:43:33;6.47;;;3.88;;
39896;SDS011;25567;48.276;14.242;2023-04-15T14:46:00;7.65;;;4.30;;
39896;SDS011;25567;48.276;14.242;2023-04-15T14:48:27;7.22;;;4.25;;
39896;SDS011;25567;48.276;14.242;2023-04-15T14:50:53;8.63;;;4.38;;
39896;SDS011;25567;48.276;14.242;2023-04-15T14:53:20;11.10;;;3.90;;
39896;SDS011;25567;48.276;14.242;2023-04-15T14:55:46;4.22;;;3.15;;
39896;SDS011;25567;48.276;14.242;2023-04-15T14:58:13;8.40;;;3.58;;